createdAt,value
2018-08-30T00:00:20.796Z,13.03
2018-08-30T00:01:24.967Z,16.93
2018-08-30T00:02:29.141Z,16.35
2018-08-30T00:03:33.307Z,14.53
2018-08-30T00:04:37.523Z,15.35
2018-08-30T00:05:42.239Z,19.80
2018-08-30T00:06:46.431Z,17.35
2018-08-30T00:07:50.648Z,14.20
2018-08-30T00:08:54.789Z,19.85
2018-08-30T00:09:58.939Z,18.20
2018-08-30T00:11:03.098Z,16.80
2018-08-30T00:12:07.536Z,17.30
2018-08-30T00:13:11.719Z,20.48
2018-08-30T00:14:15.966Z,22.48
2018-08-30T00:15:20.115Z,24.00
2018-08-30T00:16:24.377Z,20.45
2018-08-30T00:17:28.497Z,21.10
2018-08-30T00:18:32.696Z,24.45
2018-08-30T00:19:36.898Z,25.62
2018-08-30T00:20:41.323Z,30.00
2018-08-30T00:21:45.497Z,22.42
2018-08-30T00:22:49.727Z,29.02
2018-08-30T00:23:53.893Z,27.48
2018-08-30T00:24:58.256Z,24.47
2018-08-30T00:26:02.620Z,24.98
2018-08-30T00:27:07.066Z,25.00
2018-08-30T00:28:11.270Z,23.07
2018-08-30T00:29:15.443Z,23.87
2018-08-30T00:30:19.677Z,23.18
2018-08-30T00:31:23.834Z,26.25
2018-08-30T00:32:28.115Z,28.70
2018-08-30T00:33:32.285Z,27.00
2018-08-30T00:34:36.471Z,27.90
2018-08-30T00:35:41.648Z,25.70
2018-08-30T00:36:45.816Z,29.10
2018-08-30T00:37:50.132Z,29.92
2018-08-30T00:38:54.305Z,29.00
2018-08-30T00:39:58.507Z,26.82
2018-08-30T00:41:02.659Z,28.25
2018-08-30T00:42:06.859Z,28.07
2018-08-30T00:43:11.085Z,29.50
2018-08-30T00:44:15.231Z,25.88
2018-08-30T00:45:19.691Z,26.80
2018-08-30T00:46:23.846Z,36.70
2018-08-30T00:47:28.059Z,31.42
2018-08-30T00:48:32.318Z,37.28
2018-08-30T00:49:36.628Z,29.12
2018-08-30T00:50:41.019Z,29.72
2018-08-30T00:51:45.209Z,35.43
2018-08-30T00:52:49.399Z,29.80
2018-08-30T00:53:53.620Z,28.80
2018-08-30T00:54:58.007Z,32.20
2018-08-30T00:56:02.183Z,32.93
2018-08-30T00:57:06.439Z,32.05
2018-08-30T00:58:10.613Z,32.25
2018-08-30T00:59:14.750Z,32.60
2018-08-30T01:00:18.984Z,31.60
2018-08-30T01:01:23.226Z,33.73
2018-08-30T01:02:27.422Z,33.02
2018-08-30T01:03:31.591Z,30.23
2018-08-30T01:04:35.762Z,34.80
2018-08-30T01:05:39.918Z,39.20
2018-08-30T01:06:44.144Z,31.42
2018-08-30T01:07:51.312Z,31.27
2018-08-30T01:08:55.555Z,30.92
2018-08-30T01:09:59.714Z,32.05
2018-08-30T01:11:03.997Z,36.30
2018-08-30T01:12:08.166Z,30.40
2018-08-30T01:13:12.589Z,30.08
2018-08-30T01:14:16.749Z,31.68
2018-08-30T01:15:21.571Z,33.35
2018-08-30T01:16:25.736Z,31.02
2018-08-30T01:17:30.031Z,33.90
2018-08-30T01:18:34.208Z,30.57
2018-08-30T01:19:38.432Z,33.48
2018-08-30T01:20:42.600Z,30.97
2018-08-30T01:21:46.783Z,31.33
2018-08-30T01:22:51.049Z,29.70
2018-08-30T01:23:55.215Z,33.15
2018-08-30T01:24:59.403Z,37.28
2018-08-30T01:26:03.582Z,36.15
2018-08-30T01:27:14.395Z,31.82
2018-08-30T01:28:18.573Z,37.05
2018-08-30T01:29:22.743Z,36.48
2018-08-30T01:30:26.923Z,36.83
2018-08-30T01:31:31.142Z,37.28
2018-08-30T01:32:35.613Z,32.70
2018-08-30T01:33:39.876Z,37.28
2018-08-30T01:34:44.049Z,34.45
2018-08-30T01:35:48.270Z,36.23
2018-08-30T01:36:52.419Z,36.15
2018-08-30T01:37:56.584Z,34.30
2018-08-30T01:39:00.771Z,34.63
2018-08-30T01:40:05.192Z,39.85
2018-08-30T01:41:09.334Z,33.78
2018-08-30T01:42:13.672Z,41.90
2018-08-30T01:43:17.845Z,33.15
2018-08-30T01:44:22.032Z,38.20
2018-08-30T01:45:26.187Z,38.65
2018-08-30T01:46:30.628Z,34.23
2018-08-30T01:47:34.794Z,37.35
2018-08-30T01:48:38.945Z,37.58
2018-08-30T01:49:43.346Z,36.50
2018-08-30T01:50:47.502Z,41.20
2018-08-30T01:51:51.735Z,35.80
2018-08-30T01:52:55.910Z,37.23
2018-08-30T01:54:00.112Z,37.28
2018-08-30T01:55:04.534Z,34.23
2018-08-30T01:56:08.707Z,34.98
2018-08-30T01:57:13.141Z,39.53
2018-08-30T01:58:17.312Z,39.20
2018-08-30T01:59:21.488Z,42.73
2018-08-30T02:00:25.704Z,38.75
2018-08-30T02:01:29.837Z,37.00
2018-08-30T02:02:34.005Z,37.30
2018-08-30T02:03:38.172Z,35.50
2018-08-30T02:04:42.482Z,42.55
2018-08-30T02:05:46.687Z,35.30
2018-08-30T02:06:50.867Z,39.88
2018-08-30T02:07:55.168Z,40.43
2018-08-30T02:08:59.564Z,34.70
2018-08-30T02:10:03.786Z,35.55
2018-08-30T02:11:07.977Z,39.55
2018-08-30T02:12:12.333Z,38.20
2018-08-30T02:13:16.506Z,38.15
2018-08-30T02:14:20.799Z,37.15
2018-08-30T02:15:25.109Z,43.52
2018-08-30T02:16:29.498Z,39.00
2018-08-30T02:17:33.707Z,37.30
2018-08-30T02:18:37.870Z,35.95
2018-08-30T02:19:42.018Z,43.40
2018-08-30T02:20:46.183Z,42.78
2018-08-30T02:21:50.375Z,36.95
2018-08-30T02:22:54.506Z,39.23
2018-08-30T02:23:58.655Z,40.03
2018-08-30T02:25:02.839Z,40.17
2018-08-30T02:26:07.185Z,42.13
2018-08-30T02:27:11.381Z,41.92
2018-08-30T02:28:15.518Z,42.50
2018-08-30T02:29:19.976Z,42.83
2018-08-30T02:30:24.145Z,41.37
2018-08-30T02:31:28.347Z,41.95
2018-08-30T02:32:32.523Z,40.52
2018-08-30T02:33:36.749Z,42.10
2018-08-30T02:34:40.920Z,49.48
2018-08-30T02:35:45.096Z,46.42
2018-08-30T02:36:49.294Z,51.02
2018-08-30T02:37:53.499Z,47.43
2018-08-30T02:38:57.894Z,44.88
2018-08-30T02:40:02.091Z,48.73
2018-08-30T02:41:06.379Z,46.13
2018-08-30T02:42:10.561Z,51.35
2018-08-30T02:43:14.730Z,48.05
2018-08-30T02:44:19.142Z,49.70
2018-08-30T02:45:23.499Z,50.60
2018-08-30T02:46:27.655Z,51.75
2018-08-30T02:47:31.980Z,51.45
2018-08-30T02:48:36.171Z,47.17
2018-08-30T02:49:40.371Z,51.05
2018-08-30T02:50:44.694Z,45.38
2018-08-30T02:51:48.894Z,45.17
2018-08-30T02:52:53.423Z,48.75
2018-08-30T02:53:57.644Z,47.53
2018-08-30T02:55:01.888Z,50.43
2018-08-30T02:56:06.359Z,47.70
2018-08-30T02:57:10.541Z,48.90
2018-08-30T02:58:14.718Z,48.08
2018-08-30T02:59:18.879Z,46.50
2018-08-30T03:00:23.824Z,51.15
2018-08-30T03:01:28.122Z,50.45
2018-08-30T03:02:34.027Z,50.40
2018-08-30T03:03:38.235Z,49.23
2018-08-30T03:04:42.443Z,47.03
2018-08-30T03:05:46.771Z,49.53
2018-08-30T03:06:50.927Z,46.70
2018-08-30T03:07:55.072Z,46.85
2018-08-30T03:08:59.260Z,48.20
2018-08-30T03:10:03.471Z,50.25
2018-08-30T03:11:07.916Z,50.80
2018-08-30T03:12:12.074Z,49.93
2018-08-30T03:13:16.283Z,57.05
2018-08-30T03:14:20.444Z,55.00
2018-08-30T03:15:24.670Z,51.75
2018-08-30T03:16:28.835Z,50.55
2018-08-30T03:17:33.080Z,48.42
2018-08-30T03:18:37.287Z,56.53
2018-08-30T03:19:41.522Z,51.85
2018-08-30T03:20:45.729Z,51.13
2018-08-30T03:21:49.893Z,55.15
2018-08-30T03:22:54.124Z,50.33
2018-08-30T03:23:58.287Z,48.17
2018-08-30T03:25:02.679Z,48.68
2018-08-30T03:26:07.429Z,48.60
2018-08-30T03:27:11.570Z,54.30
2018-08-30T03:28:15.780Z,45.23
2018-08-30T03:29:20.053Z,50.85
2018-08-30T03:30:24.330Z,55.88
2018-08-30T03:31:28.413Z,48.85
2018-08-30T03:32:32.579Z,47.08
2018-08-30T03:33:36.714Z,54.10
2018-08-30T03:34:40.977Z,50.83
2018-08-30T03:35:45.356Z,53.68
2018-08-30T03:36:49.735Z,57.55
2018-08-30T03:37:53.888Z,46.30
2018-08-30T03:38:58.104Z,48.40
2018-08-30T03:40:02.285Z,47.85
2018-08-30T03:41:06.747Z,46.73
2018-08-30T03:42:11.130Z,48.92
2018-08-30T03:43:15.263Z,55.20
2018-08-30T03:44:19.443Z,46.35
2018-08-30T03:45:23.678Z,48.40
2018-08-30T03:46:27.996Z,55.28
2018-08-30T03:47:32.797Z,51.53
2018-08-30T03:48:36.962Z,51.70
2018-08-30T03:49:41.555Z,49.75
2018-08-30T03:50:45.844Z,54.65
2018-08-30T03:51:50.004Z,47.33
2018-08-30T03:52:54.295Z,46.20
2018-08-30T03:53:58.511Z,52.78
2018-08-30T03:55:02.955Z,51.73
2018-08-30T03:56:07.331Z,53.17
2018-08-30T03:57:11.491Z,62.50
2018-08-30T03:58:15.720Z,45.73
2018-08-30T03:59:19.891Z,50.83
2018-08-30T04:00:24.134Z,52.83
2018-08-30T04:01:28.327Z,52.43
2018-08-30T04:02:32.531Z,50.20
2018-08-30T04:03:36.731Z,52.75
2018-08-30T04:04:40.974Z,46.98
2018-08-30T04:05:45.130Z,48.83
2018-08-30T04:06:49.330Z,47.67
2018-08-30T04:07:53.588Z,47.30
2018-08-30T04:08:57.800Z,53.15
2018-08-30T04:10:02.103Z,57.67
2018-08-30T04:11:06.477Z,53.63
2018-08-30T04:12:10.661Z,50.40
2018-08-30T04:13:14.925Z,59.85
2018-08-30T04:14:19.216Z,53.25
2018-08-30T04:15:23.408Z,55.38
2018-08-30T04:16:27.583Z,56.30
2018-08-30T04:17:31.746Z,51.63
2018-08-30T04:18:35.945Z,56.60
2018-08-30T04:19:40.166Z,52.53
2018-08-30T04:20:44.357Z,46.98
2018-08-30T04:21:48.510Z,52.73
2018-08-30T04:22:52.699Z,48.48
2018-08-30T04:23:56.907Z,51.53
2018-08-30T04:25:01.107Z,48.23
2018-08-30T04:26:05.748Z,52.90
2018-08-30T04:27:09.945Z,55.25
2018-08-30T04:28:14.112Z,49.05
2018-08-30T04:29:18.284Z,53.90
2018-08-30T04:30:22.511Z,49.15
2018-08-30T04:31:27.125Z,56.33
2018-08-30T04:32:31.270Z,56.65
2018-08-30T04:33:35.655Z,50.73
2018-08-30T04:34:39.967Z,53.28
2018-08-30T04:35:44.390Z,52.05
2018-08-30T04:36:48.569Z,51.73
2018-08-30T04:37:52.770Z,55.28
2018-08-30T04:38:57.864Z,51.73
2018-08-30T04:40:02.088Z,58.28
2018-08-30T04:41:06.536Z,53.25
2018-08-30T04:42:10.986Z,60.73
2018-08-30T04:43:15.260Z,57.58
2018-08-30T04:44:19.448Z,57.08
2018-08-30T04:45:23.687Z,56.85
2018-08-30T04:46:27.903Z,54.65
2018-08-30T04:47:32.124Z,58.20
2018-08-30T04:48:36.845Z,55.10
2018-08-30T04:49:41.140Z,52.17
2018-08-30T04:50:45.320Z,55.78
2018-08-30T04:51:49.510Z,60.20
2018-08-30T04:52:53.702Z,53.20
2018-08-30T04:53:58.022Z,54.05
2018-08-30T04:55:02.448Z,58.42
2018-08-30T04:56:06.893Z,55.67
2018-08-30T04:57:11.105Z,57.03
2018-08-30T04:58:15.295Z,57.58
2018-08-30T04:59:19.477Z,60.85
2018-08-30T05:00:23.681Z,58.13
2018-08-30T05:01:27.839Z,55.80
2018-08-30T05:02:32.049Z,64.72
2018-08-30T05:03:36.231Z,55.23
2018-08-30T05:04:40.448Z,52.40
2018-08-30T05:05:44.658Z,57.23
2018-08-30T05:06:48.838Z,51.65
2018-08-30T05:07:53.067Z,57.40
2018-08-30T05:08:57.216Z,55.52
2018-08-30T05:10:01.563Z,59.95
2018-08-30T05:11:05.719Z,58.95
2018-08-30T05:12:09.888Z,52.13
2018-08-30T05:13:14.197Z,60.17
2018-08-30T05:14:18.357Z,60.90
2018-08-30T05:15:22.587Z,61.35
2018-08-30T05:16:26.800Z,55.40
2018-08-30T05:17:30.930Z,57.98
2018-08-30T05:18:35.146Z,55.28
2018-08-30T05:19:39.427Z,61.08
2018-08-30T05:20:43.570Z,58.92
2018-08-30T05:21:47.725Z,63.65
2018-08-30T05:22:51.982Z,55.78
2018-08-30T05:23:56.350Z,59.38
2018-08-30T05:25:00.726Z,59.33
2018-08-30T05:26:04.965Z,57.98
2018-08-30T05:27:09.118Z,55.90
2018-08-30T05:28:13.297Z,55.43
2018-08-30T05:29:19.302Z,52.27
2018-08-30T05:30:23.547Z,61.88
2018-08-30T05:31:27.723Z,58.45
2018-08-30T05:32:32.141Z,55.45
2018-08-30T05:33:36.299Z,61.48
2018-08-30T05:34:40.529Z,57.03
2018-08-30T05:35:44.766Z,62.25
2018-08-30T05:36:48.930Z,62.70
2018-08-30T05:37:53.121Z,56.55
2018-08-30T05:39:04.367Z,64.17
2018-08-30T05:40:08.579Z,59.35
2018-08-30T05:41:12.783Z,57.53
2018-08-30T05:42:16.963Z,58.60
2018-08-30T05:43:21.361Z,57.43
2018-08-30T05:44:25.872Z,65.37
2018-08-30T05:45:30.067Z,63.33
2018-08-30T05:46:34.283Z,61.33
2018-08-30T05:47:38.467Z,55.45
2018-08-30T05:48:42.628Z,63.92
2018-08-30T05:49:46.798Z,53.95
2018-08-30T05:50:51.188Z,61.92
2018-08-30T05:51:55.396Z,60.45
2018-08-30T05:52:59.562Z,59.00
2018-08-30T05:54:03.743Z,53.90
2018-08-30T05:55:07.939Z,59.53
2018-08-30T05:56:12.324Z,57.40
2018-08-30T05:57:16.541Z,59.35
2018-08-30T05:58:20.751Z,48.10
2018-08-30T05:59:25.362Z,50.08
2018-08-30T06:00:29.564Z,46.65
2018-08-30T06:01:33.832Z,45.58
2018-08-30T06:02:37.999Z,64.20
2018-08-30T06:03:42.180Z,52.55
2018-08-30T06:04:46.344Z,47.17
2018-08-30T06:05:50.639Z,54.73
2018-08-30T06:06:54.837Z,51.65
2018-08-30T06:07:59.021Z,49.98
2018-08-30T06:09:03.275Z,51.98
2018-08-30T06:10:07.497Z,52.67
2018-08-30T06:11:11.679Z,49.30
2018-08-30T06:12:15.867Z,44.13
2018-08-30T06:13:20.048Z,47.17
2018-08-30T06:14:24.299Z,50.43
2018-08-30T06:15:28.610Z,56.02
2018-08-30T06:16:34.142Z,51.13
2018-08-30T06:17:39.254Z,46.83
2018-08-30T06:18:43.972Z,49.25
2018-08-30T06:19:48.431Z,54.40
2018-08-30T06:20:52.806Z,44.48
2018-08-30T06:21:58.091Z,45.30
2018-08-30T06:23:02.696Z,48.42
2018-08-30T06:24:07.781Z,49.55
2018-08-30T06:25:12.003Z,45.65
2018-08-30T06:26:16.918Z,43.68
2018-08-30T06:27:22.224Z,43.15
2018-08-30T06:28:27.599Z,37.50
2018-08-30T06:29:33.548Z,39.03
2018-08-30T06:30:38.761Z,40.50
2018-08-30T06:31:43.038Z,41.70
2018-08-30T06:32:47.306Z,43.00
2018-08-30T06:33:51.652Z,42.35
2018-08-30T06:34:56.012Z,38.48
2018-08-30T06:36:01.867Z,49.77
2018-08-30T06:37:08.592Z,41.40
2018-08-30T06:38:12.931Z,47.50
2018-08-30T06:39:17.595Z,42.25
2018-08-30T06:40:22.130Z,54.60
2018-08-30T06:41:26.870Z,42.23
2018-08-30T06:42:32.180Z,39.42
2018-08-30T06:43:37.331Z,43.10
2018-08-30T06:44:41.841Z,38.40
2018-08-30T06:45:48.984Z,45.70
2018-08-30T06:46:54.262Z,42.38
2018-08-30T06:47:58.495Z,38.08
2018-08-30T06:49:02.810Z,48.90
2018-08-30T06:50:07.933Z,44.35
2018-08-30T06:51:13.960Z,38.95
2018-08-30T06:52:18.262Z,38.20
2018-08-30T06:53:22.496Z,37.98
2018-08-30T06:54:26.803Z,37.60
2018-08-30T06:55:31.415Z,33.58
2018-08-30T06:56:35.827Z,30.05
2018-08-30T06:57:41.144Z,39.03
2018-08-30T06:58:45.652Z,34.98
2018-08-30T06:59:50.134Z,39.33
2018-08-30T07:00:54.736Z,37.60
2018-08-30T07:02:00.181Z,27.07
2018-08-30T07:03:05.474Z,30.95
2018-08-30T07:04:11.488Z,29.65
2018-08-30T07:05:16.157Z,32.58
2018-08-30T07:06:20.727Z,33.95
2018-08-30T07:07:25.281Z,30.55
2018-08-30T07:08:29.931Z,31.07
2018-08-30T07:09:34.562Z,31.20
2018-08-30T07:10:39.757Z,31.77
2018-08-30T07:11:44.708Z,27.90
2018-08-30T07:12:49.134Z,35.52
2018-08-30T07:13:53.884Z,27.67
2018-08-30T07:14:58.592Z,32.73
2018-08-30T07:16:03.554Z,31.68
2018-08-30T07:17:08.498Z,37.80
2018-08-30T07:18:13.760Z,27.50
2018-08-30T07:19:19.012Z,29.98
2018-08-30T07:20:23.940Z,26.12
2018-08-30T07:21:28.129Z,32.00
2018-08-30T07:22:32.327Z,24.23
2018-08-30T07:23:37.808Z,31.17
2018-08-30T07:24:42.597Z,29.32
2018-08-30T07:25:46.889Z,24.95
2018-08-30T07:26:52.368Z,25.77
2018-08-30T07:27:58.064Z,28.92
2018-08-30T07:29:03.458Z,25.97
2018-08-30T07:30:11.885Z,30.57
2018-08-30T07:31:17.355Z,27.00
2018-08-30T07:32:23.886Z,29.67
2018-08-30T07:33:30.241Z,24.65
2018-08-30T07:34:34.479Z,26.37
2018-08-30T07:35:38.721Z,26.33
2018-08-30T07:36:42.908Z,24.67
2018-08-30T07:37:47.112Z,20.23
2018-08-30T07:38:51.273Z,19.42
2018-08-30T07:39:55.452Z,31.62
2018-08-30T07:40:59.632Z,24.05
2018-08-30T07:42:03.829Z,26.20
2018-08-30T07:43:07.995Z,17.60
2018-08-30T07:44:12.777Z,27.67
2018-08-30T07:45:17.163Z,22.37
2018-08-30T07:46:21.303Z,17.75
2018-08-30T07:47:25.492Z,25.65
2018-08-30T07:48:29.653Z,22.90
2018-08-30T07:49:33.828Z,25.23
2018-08-30T07:50:38.025Z,20.05
2018-08-30T07:51:42.211Z,21.25
2018-08-30T07:52:46.379Z,19.55
2018-08-30T07:53:50.720Z,32.42
2018-08-30T07:54:55.215Z,20.65
2018-08-30T07:55:59.347Z,20.20
2018-08-30T07:57:03.802Z,22.58
2018-08-30T07:58:08.036Z,29.65
2018-08-30T07:59:12.241Z,23.85
2018-08-30T08:00:17.560Z,18.92
2018-08-30T08:01:21.743Z,18.70
2018-08-30T08:02:25.920Z,18.05
2018-08-30T08:03:30.115Z,14.83
2018-08-30T08:04:34.311Z,19.50
2018-08-30T08:05:38.551Z,16.23
2018-08-30T08:06:42.800Z,14.70
2018-08-30T08:07:47.113Z,19.75
2018-08-30T08:08:51.327Z,18.40
2018-08-30T08:09:55.524Z,18.30
2018-08-30T08:10:59.736Z,20.50
2018-08-30T08:12:04.141Z,18.85
2018-08-30T08:13:08.340Z,17.77
2018-08-30T08:14:12.544Z,22.35
2018-08-30T08:15:16.783Z,21.57
2018-08-30T08:16:21.212Z,15.20
2018-08-30T08:17:25.466Z,15.38
2018-08-30T08:18:29.802Z,20.00
2018-08-30T08:19:34.247Z,14.07
2018-08-30T08:20:38.800Z,24.20
2018-08-30T08:21:43.003Z,16.35
2018-08-30T08:22:47.309Z,19.12
2018-08-30T08:23:51.448Z,17.80
2018-08-30T08:24:55.626Z,16.12
2018-08-30T08:25:59.830Z,24.60
2018-08-30T08:27:04.136Z,14.85
2018-08-30T08:28:09.024Z,17.55
2018-08-30T08:29:13.211Z,20.25
2018-08-30T08:30:17.414Z,15.50
2018-08-30T08:31:21.615Z,20.68
2018-08-30T08:32:25.830Z,17.10
2018-08-30T08:33:30.107Z,17.07
2018-08-30T08:34:34.396Z,16.80
2018-08-30T08:35:38.693Z,13.85
2018-08-30T08:36:42.897Z,11.65
2018-08-30T08:37:47.115Z,15.03
2018-08-30T08:38:51.294Z,12.45
2018-08-30T08:39:55.515Z,14.70
2018-08-30T08:41:00.074Z,18.95
2018-08-30T08:42:04.300Z,16.07
2018-08-30T08:43:08.630Z,14.07
2018-08-30T08:44:12.802Z,11.63
2018-08-30T08:45:17.059Z,11.63
2018-08-30T08:46:21.259Z,13.58
2018-08-30T08:47:25.420Z,17.82
2018-08-30T08:48:29.663Z,12.25
2018-08-30T08:49:33.903Z,11.70
2018-08-30T08:50:38.090Z,13.60
2018-08-30T08:51:42.299Z,15.88
2018-08-30T08:52:46.523Z,16.62
2018-08-30T08:53:50.868Z,11.70
2018-08-30T08:54:57.050Z,14.15
2018-08-30T08:56:01.291Z,12.03
2018-08-30T08:57:05.801Z,15.50
2018-08-30T08:58:10.107Z,16.45
2018-08-30T08:59:14.441Z,14.87
2018-08-30T09:00:18.586Z,13.60
2018-08-30T09:01:22.755Z,10.28
2018-08-30T09:02:26.905Z,14.80
2018-08-30T09:03:31.120Z,11.75
2018-08-30T09:04:35.408Z,9.93
2018-08-30T09:05:40.328Z,13.20
2018-08-30T09:06:44.535Z,9.55
2018-08-30T09:07:49.083Z,12.00
2018-08-30T09:08:53.250Z,6.25
2018-08-30T09:09:58.260Z,14.80
2018-08-30T09:11:02.575Z,10.20
2018-08-30T09:12:06.767Z,18.10
2018-08-30T09:13:10.982Z,11.35
2018-08-30T09:14:15.271Z,9.05
2018-08-30T09:15:19.462Z,14.87
2018-08-30T09:16:23.655Z,12.73
2018-08-30T09:17:27.795Z,14.80
2018-08-30T09:18:32.128Z,8.63
2018-08-30T09:19:36.259Z,9.95
2018-08-30T09:20:40.490Z,7.83
2018-08-30T09:21:44.642Z,9.30
2018-08-30T09:22:48.790Z,6.72
2018-08-30T09:23:53.002Z,12.15
2018-08-30T09:24:57.138Z,13.85
2018-08-30T09:26:01.315Z,12.43
2018-08-30T09:27:05.532Z,10.40
2018-08-30T09:28:09.799Z,12.13
2018-08-30T09:29:13.966Z,17.48
2018-08-30T09:30:18.100Z,11.75
2018-08-30T09:31:22.552Z,14.90
2018-08-30T09:32:26.902Z,8.30
2018-08-30T09:33:31.073Z,7.65
2018-08-30T09:34:35.378Z,14.28
2018-08-30T09:35:39.628Z,6.25
2018-08-30T09:36:43.813Z,13.70
2018-08-30T09:37:47.951Z,7.17
2018-08-30T09:38:52.167Z,9.93
2018-08-30T09:39:56.307Z,7.95
2018-08-30T09:41:00.633Z,14.38
2018-08-30T09:42:04.941Z,9.55
2018-08-30T09:43:09.311Z,7.00
2018-08-30T09:44:13.515Z,8.48
2018-08-30T09:45:17.684Z,10.30
2018-08-30T09:46:21.861Z,5.72
2018-08-30T09:47:26.051Z,8.30
2018-08-30T09:48:30.396Z,9.35
2018-08-30T09:49:34.575Z,8.53
2018-08-30T09:50:38.715Z,9.23
2018-08-30T09:51:42.904Z,11.57
2018-08-30T09:52:47.128Z,13.28
2018-08-30T09:53:51.484Z,11.18
2018-08-30T09:54:55.614Z,8.73
2018-08-30T09:55:59.785Z,10.53
2018-08-30T09:57:04.122Z,9.30
2018-08-30T09:58:08.583Z,13.40
2018-08-30T09:59:13.226Z,8.20
2018-08-30T10:00:22.880Z,12.53
2018-08-30T10:01:32.351Z,11.05
2018-08-30T10:02:56.043Z,10.28
2018-08-30T10:04:00.319Z,5.10
2018-08-30T10:05:04.494Z,10.85
2018-08-30T10:06:08.686Z,16.48
2018-08-30T10:07:13.506Z,4.25
2018-08-30T10:08:17.666Z,4.50
2018-08-30T10:09:21.906Z,14.80
2018-08-30T10:10:26.466Z,13.75
2018-08-30T10:11:30.620Z,9.98
2018-08-30T10:12:34.940Z,8.70
2018-08-30T10:13:39.113Z,11.10
2018-08-30T10:14:43.659Z,9.33
2018-08-30T10:15:47.867Z,9.00
2018-08-30T10:16:52.068Z,12.70
2018-08-30T10:17:56.214Z,10.88
2018-08-30T10:19:00.379Z,9.45
2018-08-30T10:20:04.684Z,9.30
2018-08-30T10:21:08.826Z,7.20
2018-08-30T10:22:13.062Z,5.10
2018-08-30T10:23:17.300Z,5.75
2018-08-30T10:24:21.496Z,7.17
2018-08-30T10:25:25.743Z,9.10
2018-08-30T10:26:29.868Z,7.65
2018-08-30T10:27:34.018Z,6.72
2018-08-30T10:28:38.164Z,6.42
2018-08-30T10:29:42.323Z,8.53
2018-08-30T10:30:46.519Z,7.65
2018-08-30T10:31:50.723Z,6.80
2018-08-30T10:32:54.922Z,6.75
2018-08-30T10:33:59.085Z,10.53
2018-08-30T10:35:04.539Z,6.03
2018-08-30T10:36:08.763Z,11.33
2018-08-30T10:37:12.907Z,8.93
2018-08-30T10:38:17.071Z,5.67
2018-08-30T10:39:21.395Z,4.80
2018-08-30T10:40:25.595Z,3.65
2018-08-30T10:41:29.810Z,8.65
2018-08-30T10:42:34.007Z,8.10
2018-08-30T10:43:38.236Z,7.62
2018-08-30T10:44:43.671Z,14.73
2018-08-30T10:45:47.839Z,5.20
2018-08-30T10:46:52.140Z,3.87
2018-08-30T10:47:56.274Z,9.05
2018-08-30T10:49:00.464Z,3.70
2018-08-30T10:50:04.680Z,24.40
2018-08-30T10:51:08.848Z,7.40
2018-08-30T10:52:13.283Z,6.58
2018-08-30T10:53:17.502Z,6.42
2018-08-30T10:54:21.702Z,4.75
2018-08-30T10:55:25.860Z,4.60
2018-08-30T10:56:30.206Z,9.18
2018-08-30T10:57:34.496Z,9.58
2018-08-30T10:58:38.915Z,4.33
2018-08-30T10:59:43.349Z,5.80
2018-08-30T11:00:48.468Z,5.42
2018-08-30T11:01:54.169Z,3.67
2018-08-30T11:02:59.393Z,4.90
2018-08-30T11:04:04.531Z,4.05
2018-08-30T11:05:09.371Z,6.50
2018-08-30T11:06:13.634Z,5.37
2018-08-30T11:07:18.119Z,11.38
2018-08-30T11:08:22.367Z,14.55
2018-08-30T11:09:26.687Z,11.20
2018-08-30T11:10:31.133Z,6.55
2018-08-30T11:11:35.372Z,4.37
2018-08-30T11:12:39.652Z,9.18
2018-08-30T11:13:45.215Z,7.62
2018-08-30T11:14:50.873Z,6.08
2018-08-30T11:15:55.537Z,5.05
2018-08-30T11:16:59.790Z,6.45
2018-08-30T11:18:04.362Z,8.23
2018-08-30T11:19:08.683Z,5.45
2018-08-30T11:20:12.847Z,7.25
2018-08-30T11:21:17.075Z,5.45
2018-08-30T11:22:21.244Z,2.00
2018-08-30T11:23:25.488Z,7.55
2018-08-30T11:24:29.934Z,7.55
2018-08-30T11:25:34.362Z,11.40
2018-08-30T11:26:38.619Z,7.90
2018-08-30T11:27:42.740Z,9.60
2018-08-30T11:28:48.444Z,5.33
2018-08-30T11:29:55.246Z,12.25
2018-08-30T11:31:00.373Z,7.17
2018-08-30T11:32:04.648Z,4.70
2018-08-30T11:33:09.979Z,8.60
2018-08-30T11:34:14.157Z,8.18
2018-08-30T11:35:20.050Z,9.15
2018-08-30T11:36:24.997Z,5.08
2018-08-30T11:37:30.366Z,6.35
2018-08-30T11:38:34.935Z,7.80
2018-08-30T11:39:39.134Z,4.10
2018-08-30T11:40:43.376Z,12.03
2018-08-30T11:41:47.836Z,8.40
2018-08-30T11:42:51.883Z,5.97
2018-08-30T11:43:56.054Z,6.95
2018-08-30T11:45:00.240Z,9.13
2018-08-30T11:46:04.444Z,6.80
2018-08-30T11:47:08.580Z,14.15
2018-08-30T11:48:12.717Z,8.48
2018-08-30T11:49:16.874Z,5.95
2018-08-30T11:50:21.060Z,10.15
2018-08-30T11:51:26.197Z,7.65
2018-08-30T11:52:30.396Z,9.10
2018-08-30T11:53:34.558Z,4.53
2018-08-30T11:54:38.751Z,4.08
2018-08-30T11:55:42.892Z,4.45
2018-08-30T11:56:53.612Z,7.67
2018-08-30T11:57:57.821Z,6.60
2018-08-30T11:59:04.297Z,5.05
2018-08-30T12:00:10.460Z,6.15
2018-08-30T12:01:15.372Z,10.45
2018-08-30T12:02:19.608Z,4.80
2018-08-30T12:03:24.220Z,18.60
2018-08-30T12:04:28.771Z,4.80
2018-08-30T12:05:33.441Z,9.48
2018-08-30T12:06:37.799Z,7.08
2018-08-30T12:07:42.663Z,10.53
2018-08-30T12:08:46.876Z,10.05
2018-08-30T12:09:51.066Z,8.03
2018-08-30T12:10:55.446Z,5.25
2018-08-30T12:12:01.001Z,9.43
2018-08-30T12:13:05.424Z,9.05
2018-08-30T12:14:09.578Z,6.10
2018-08-30T12:15:13.784Z,9.73
2018-08-30T12:16:18.133Z,8.58
2018-08-30T12:17:22.408Z,8.48
2018-08-30T12:18:26.622Z,8.73
2018-08-30T12:19:30.785Z,5.08
2018-08-30T12:20:35.046Z,10.40
2018-08-30T12:21:39.170Z,3.55
2018-08-30T12:22:43.341Z,8.15
2018-08-30T12:23:47.598Z,5.17
2018-08-30T12:24:51.751Z,4.20
2018-08-30T12:25:55.930Z,5.47
2018-08-30T12:27:00.132Z,9.68
2018-08-30T12:28:04.306Z,8.85
2018-08-30T12:29:08.664Z,4.70
2018-08-30T12:30:12.881Z,7.22
2018-08-30T12:31:17.115Z,6.45
2018-08-30T12:32:21.610Z,7.45
2018-08-30T12:33:25.806Z,6.25
2018-08-30T12:34:30.174Z,4.35
2018-08-30T12:35:34.419Z,7.22
2018-08-30T12:36:38.556Z,9.15
2018-08-30T12:37:42.673Z,8.95
2018-08-30T12:38:46.939Z,3.05
2018-08-30T12:39:51.157Z,9.98
2018-08-30T12:40:55.334Z,9.45
2018-08-30T12:41:59.464Z,8.20
2018-08-30T12:43:04.003Z,7.45
2018-08-30T12:44:08.349Z,6.55
2018-08-30T12:45:12.518Z,10.63
2018-08-30T12:46:16.773Z,5.85
2018-08-30T12:47:20.904Z,8.43
2018-08-30T12:48:25.129Z,3.65
2018-08-30T12:49:29.320Z,5.00
2018-08-30T12:50:33.584Z,7.92
2018-08-30T12:51:38.008Z,8.08
2018-08-30T12:52:41.999Z,5.22
2018-08-30T12:53:46.296Z,7.58
2018-08-30T12:54:50.441Z,4.47
2018-08-30T12:55:54.829Z,5.97
2018-08-30T12:57:00.023Z,5.55
2018-08-30T12:58:04.570Z,9.63
2018-08-30T12:59:14.606Z,4.25
2018-08-30T13:00:18.765Z,4.33
2018-08-30T13:01:23.071Z,5.10
2018-08-30T13:02:27.304Z,7.03
2018-08-30T13:03:31.377Z,5.10
2018-08-30T13:04:35.704Z,3.98
2018-08-30T13:05:39.997Z,8.25
2018-08-30T13:06:45.685Z,9.20
2018-08-30T13:07:49.918Z,6.55
2018-08-30T13:08:54.129Z,9.65
2018-08-30T13:09:58.343Z,11.93
2018-08-30T13:11:02.738Z,3.98
2018-08-30T13:12:07.037Z,5.17
2018-08-30T13:13:11.119Z,7.83
2018-08-30T13:14:15.640Z,5.80
2018-08-30T13:15:21.379Z,7.15
2018-08-30T13:16:25.541Z,6.08
2018-08-30T13:17:29.812Z,6.47
2018-08-30T13:18:34.165Z,6.08
2018-08-30T13:19:38.768Z,10.03
2018-08-30T13:20:42.942Z,3.25
2018-08-30T13:21:47.697Z,4.53
2018-08-30T13:22:51.964Z,5.53
2018-08-30T13:23:56.173Z,7.85
2018-08-30T13:25:00.722Z,3.15
2018-08-30T13:26:05.334Z,5.40
2018-08-30T13:27:09.750Z,5.58
2018-08-30T13:28:14.410Z,6.00
2018-08-30T13:29:18.830Z,5.20
2018-08-30T13:30:22.973Z,5.12
2018-08-30T13:31:27.673Z,6.95
2018-08-30T13:32:32.418Z,7.65
2018-08-30T13:33:36.567Z,5.90
2018-08-30T13:34:40.902Z,6.60
2018-08-30T13:35:44.884Z,4.80
2018-08-30T13:36:49.345Z,5.12
2018-08-30T13:37:53.502Z,6.17
2018-08-30T13:38:58.066Z,8.28
2018-08-30T13:40:03.697Z,12.30
2018-08-30T13:41:08.307Z,6.97
2018-08-30T13:42:13.183Z,9.95
2018-08-30T13:43:17.594Z,4.65
2018-08-30T13:44:24.171Z,10.43
2018-08-30T13:45:28.475Z,5.83
2018-08-30T13:46:34.968Z,7.28
2018-08-30T13:47:39.345Z,7.50
2018-08-30T13:48:44.593Z,2.95
2018-08-30T13:49:48.865Z,4.12
2018-08-30T13:50:53.074Z,5.92
2018-08-30T13:51:57.408Z,4.83
2018-08-30T13:53:01.863Z,16.27
2018-08-30T13:54:06.420Z,7.58
2018-08-30T13:55:10.397Z,3.87
2018-08-30T13:56:14.987Z,5.15
2018-08-30T13:57:19.080Z,5.65